All Spectrum Aviation - Van Nuys Airport - KVNY

HOME

Van Nuys Tower Recordings

Condor Squadron KVNY Webcam

Visit our Electronics Store

Condor Squadron Webcam - Van Nuys Airport - KVNY
Picture taken: Wed, 27 Jul 2016 16:01:37 -0700
YouTube Channel!    Latest Timelapse Movie    Full Size Image    Regular Size Image    

2016/07/27 22:51 KVNY 272251Z 15008KT 10SM FU CLR 36/08 A2987 RMK AO2 SLP104 T03560083

HOME

Van Nuys Tower Recordings

Condor Squadron KVNY Webcam

Visit our Electronics Store